Terminal Aerodrome Forecast
Issued by NWS Wilmington, OH

Current Version | Previous Version | Graphics & Text | Print | Product List | Glossary On
Versions: 1 2 3 4 5 6 7 8 9 10 11 12 13 14 15 16 17 18 19 20 21 22 23 24 25 26 27 28
000
FTUS41 KILN 301700
TAFDAY
TAF
KDAY 301720Z 3018/3118 20014KT P6SM VCTS BKN040CB
      TEMPO 3018/3022 VRB05G15KT 5SM -TSRA BKN035CB
     FM310000 20010KT P6SM FEW040 SCT150
     FM310600 16008KT P6SM VCSH SCT025 BKN050
     FM311500 22010KT P6SM VCSH OVC025=

USA.gov is the U.S. government's official web portal to all federal, state and local government web resources and services.